LiveATC.Net - Listen to live air traffic control over the Internet!

Find LiveATC Audio Streams


Airport/ARTCC Code

Frequency Search
(e.g., 124.400, 128.75)
Site-wide search
 


Browse LiveATC Feeds
LiveATC Coverage Map
Top 50 LiveATC Feeds
Bad Weather Areas

LiveATC FAQ
Offer a LiveATC Feed
Contact LiveATC.net
Press Inquiries

LiveATC on iPhone
LiveATC on Android

Windows Phone
Windows 8/10

LiveATC Mobile
(Mobile browser)

ATC Audio Archives
Interesting Recordings

LiveATC Forums

Home Page
About LiveATC.net
Make a Donation
LiveATC Store

Terms of Use
Privacy Policy

Canadian Air Freqs

AIRMETs/SIGMETs

FAA Airport Status
Nat'l Airspace Status
Arrival Demand Charts


Server Software By:
Icecast.org
Liquidsoap


Current Potentially Bad Weather Airports
(updated every 30 minutes - sorted alphabetically by ICAO code)



This page lists LiveATC.net airport areas that may be interesting to listen to because of challenging flying (weather) conditions. Challenging weather conditions include low ceilings, limited visibility, high or gusty winds, or thunderstorms.

Updated: Thu Sep 21 23:10:01 UTC 2017
Click on airport name to go to that airport area's feeds.

EPLB CTAF/Center Lublin Airport (Lublin, Poland)
WX MAP UNAVAILABLENearest METAR:
EPLB 212230Z 32003KT 2000 BR OVC003 12/12 Q1012
EPRZ Del/Twr/EPWW Radar Warszawa Control Zone (Jasionka, Poland)
WX MAP UNAVAILABLENearest METAR:
EPRZ 212230Z 26006KT 4300 BR OVC002 11/11 Q1013
ESGG Gnd/Twr/Control Landvetter Airport (Gothenburg, Sweden)
WX MAP UNAVAILABLENearest METAR:
ESGG 212250Z 05005KT 9999 OVC008 08/07 Q1023
ESPA Twr/Control Lulea Airport (Lulea, Sweden)
WX MAP UNAVAILABLENearest METAR:
ESPA 212250Z AUTO 14011KT 9999 OVC006/// 10/09 Q1031
EYVI Twr/App/Misc Vilnius International Airport (Vilnius, Lithuania)
WX MAP UNAVAILABLENearest METAR:
EYVI 212250Z 10007KT 070V130 9999 TSRA BKN023CB OVC068 13/12 Q1016 TEMPO 01020KT 3000 TSRA BKN005
KACK Tower Nantucket Memorial Airport (Nantucket, US-MA)
kackNearest METAR:
KACK 212253Z 01030G46KT 2SM RA BR OVC010 16/16 A2979 RMK AO2 PK WND 01046/2251 SLP086 P0017 T01610156
KARB Gnd/Twr Ann Arbor Municipal Airport (Ann Arbor, US-MI)
karbNearest METAR:
KARB 212253Z AUTO 11003KT 10SM CLR 29/23 A3005 RMK AO2 LTG DSNT W SLP170 T02890233
KBFM Ground/Tower Mobile Downtown Airport (Mobile, US-AL)
kbfmNearest METAR:
KBFM 212253Z 24005KT 10SM CLR 28/25 A2996 RMK AO2 LTG DSNT SW SLP145 T02830250
MA/NH/RI/CT Area CTAF Fitchburg Municipal Airport (Fitchburg, US-MA)
kpymNearest METAR:
KPYM 212252Z AUTO 03021G32KT 10SM OVC038 19/10 A2996 RMK AO2 PK WND 02032/2245 SLP146 T01890100
KBTR/KHZR/L38 Del/Gnd/Twr/App/CTAF Baton Rouge Metropolitan Airport - Ryan Field (Baton Rouge, US-LA)
khzrNearest METAR:
KHZR 212255Z AUTO 34003KT 10SM CLR 31/22 A2994 RMK AO2 LTG DSNT E T03110215
KBTR/KHZR/L38 Del/Gnd/Twr/App/CTAF Baton Rouge Metropolitan Airport - Ryan Field (Baton Rouge, US-LA)
kbtrNearest METAR:
KBTR 212253Z 15010KT 10SM BKN035 BKN055 28/22 A2994 RMK AO2 LTG DSNT NE RAB23E53 SLP136 P0000 T02780222
KCHS Gnd/Twr/App Charleston Air Force Base/International Airport (Charleston, US-SC)
kchsNearest METAR:
KCHS 212256Z 00000KT 10SM FEW020 SCT110 BKN250 24/20 A2998 RMK AO2 LTG DSNT N SLP153 CB DSNT N T02390200 PNO
KCRE Ground/Tower Grand Strand Airport (North Myrtle Beach, US-SC)
kcreNearest METAR:
KCRE 212253Z 03003KT 9SM FEW110 24/23 A2999 RMK AO1 LTG DSNT N AND NE SLP155 T02440233
KDAY Del/Gnd/Twr/App James M Cox Dayton International Airport (Dayton, US-OH)
kdayNearest METAR:
KDAY 212256Z 34009KT 10SM -TSRA SCT055CB BKN090 BKN110 BKN250 24/19 A3006 RMK AO2 WSHFT 2233 LTG DSNT W RAB20 SLP174 OCNL LTGICCCCG NW-N TS NW-N MOV SW P0000 T02440194
F44 CTAF Athens Municipal Airport (Athens, US-TX)
kf44Nearest METAR:
KF44 212255Z AUTO 16012G17KT 10SM SCT044 SCT060 SCT070 30/21 A2990 RMK AO2 LTG DSNT SW
KFLG Ground/Tower Flagstaff Pulliam Airport (Flagstaff, US-AZ)
kflgNearest METAR:
KFLG 212257Z 22029G35KT 10SM CLR 19/M02 A2996 RMK AO2 PK WND 21042/2213 SLP054 T01891022
KGGG Gnd/Twr East Texas Regional Airport (Longview, US-TX)
kgggNearest METAR:
KGGG 212253Z 17015KT 10SM SCT047 BKN055 26/21 A2993 RMK AO2 PK WND 20030/2223 WSHFT 2217 LTG DSNT W SLP129 T02560211
KGRR Del/Gnd/Twr/App Gerald R. Ford International Airport (Grand Rapids, US-MI)
kgrrNearest METAR:
KGRR 212253Z 13012KT 10SM BKN055 BKN250 29/19 A3004 RMK AO2 LTG DSNT E AND SE SLP166 CB DSNT E-SE MOV E T02940189
KHDC De/Gnd/Twr/App/ZHU Hammond Northshore Regional Airport (Hammond, US-LA)
khdcNearest METAR:
KHDC 212255Z AUTO 15004KT 10SM VCTS SCT047 30/20 A2995 RMK AO2 LTG DSNT NW THRU NE
KHOU Gnd/Twr/App William P Hobby Airport (Houston, US-TX)
khouNearest METAR:
KHOU 212253Z 15005KT 10SM FEW025 SCT065 BKN100 OVC250 27/23 A2993 RMK AO2 LTG DSNT SE RAE09 SLP139 P0000 T02670233
KHRL Tower/CTAF Valley International Airport (Harlingen, US-TX)
khrlNearest METAR:
KHRL 212252Z 13018G23KT 10SM FEW043 33/23 A2982 RMK AO2 LTG DSNT N AND NW SLP098 T03280233
KHUT Ground/Twr Hutchinson Municipal Airport (Hutchinson, US-KS)
khutNearest METAR:
KHUT 212252Z 17020G32KT 10SM FEW075 36/19 A2973 RMK AO2 PK WND 16034/2239 SLP041 T03560194
KHYA/KFMH Twr/Cape App Cape Cod Coast Guard Air Station (Falmouth, US-MA)
kfmhNearest METAR:
KFMH 212255Z AUTO 01023G36KT 6SM -RA OVC032 16/12 A2992 RMK AO2 FZRANO
KICT Tower Wichita Mid-Continent Airport (Wichita, US-KS)
kictNearest METAR:
KICT 212253Z 16023G31KT 10SM FEW060 FEW070 FEW250 34/22 A2976 RMK AO2 PK WND 16033/2159 SLP062 T03390222
KILM Gnd/Twr/App #1 Wilmington International Airport (Wilmington, US-NC)
kilmNearest METAR:
KILM 212253Z 16005KT 10SM SCT100 21/19 A3000 RMK AO2 LTG DSNT SE-W RAE05 TSE08 SLP159 P0000 T02110194
KJNX CTAF Johnston Regional Airport (Smithfield, US-NC)
kjnxNearest METAR:
KJNX 212245Z AUTO 00000KT 10SM CLR 24/21 A3000 RMK AO2 LTG DSNT SE AND S
KJXN Del/Gnd/Twr/App Jackson County Airport-Reynolds Field (Jackson, US-MI)
kjxnNearest METAR:
KJXN 212256Z 36012G22KT 10SM VCTS BKN055 BKN070 26/17 A3009 RMK AO2 LTG DSNT N AND NE SLP183 T02610172
KLAN Del/Gnd/Twr/App Capital Region International Airport (Lansing, US-MI)
klanNearest METAR:
KLAN 212253Z 09005KT 10SM VCTS FEW034 SCT070 BKN095 22/18 A3007 RMK AO2 LTG DSNT ALQDS RAE52 TSE43 SLP178 P0037 T02170183
KLRD Ground/Tower Laredo International Airport (Laredo, US-TX)
klrdNearest METAR:
KLRD 212256Z 13012KT 10SM SCT065 37/20 A2978 RMK AO2 LTG DSNT NE AND E SLP079 T03720200 $
KLSV Twr/App/Dep Nellis Air Force Base (Las Vegas, US-NV)
WX MAP UNAVAILABLENearest METAR:
KLSV 212258Z AUTO 20024G30KT 10SM CLR 27/07 A2960 RMK AO2 PK WND 19036/11 SLPNO T02650070 $
KMEV CTAF/Unicom Minden-Tahoe Airport (Minden, US-NV)
kmevNearest METAR:
KMEV 212255Z AUTO 35011G16KT 10SM TS FEW043 SCT075 BKN095 08/00 A2985 RMK AO2 LTG DSNT S
KMVY Del/Gnd/Twr Martha's Vineyard Airport (Vineyard Haven, US-MA)
kmvyNearest METAR:
KMVY 212253Z 01024G36KT 3SM HZ OVC029 17/13 A2987 RMK AO2 PK WND 01043/2224 RAE42 SLP114 P0002 T01670128
KMYR Gnd/Twr/App/ATIS Myrtle Beach International Airport (Myrtle Beach, US-SC)
kmyrNearest METAR:
KMYR 212256Z 34005KT 10SM FEW120 24/21 A2999 RMK AO2 LTG DSNT SW AND W TSE47RAB19E34 SLP154 P0000 T02390211
SFO Fleet Week San Francisco International Airport (San Francisco, US-CA)
ksfoNearest METAR:
KSFO 212256Z 28025G31KT 10SM FEW023 FEW035 SCT200 18/08 A2989 RMK AO2 PK WND 28033/2232 SLP120 T01830083
KOMA Del/Gnd/Twr Eppley Airfield (Omaha, US-NE)
komaNearest METAR:
KOMA 212252Z 17023G32KT 10SM FEW046 33/22 A2972 RMK AO2 PK WND 17032/2243 SLP055 T03280217
KPNS/KNPA Del/Gnd/Twr/App Pensacola Naval Air Station (Forrest Sherman Field) (Pensacola, US-FL)
kpnsNearest METAR:
KPNS 212253Z AUTO 19006KT 10SM FEW120 29/23 A2994 RMK AO2 LTG DSNT NE SLP140 T02940233
KPXE CTAF Perry-Houston County Airport (Perry, US-GA)
kpxeNearest METAR:
KPXE 212255Z AUTO 02006KT 10SM -RA SCT039 SCT055 OVC100 26/21 A2997 RMK AO2 LTG DSNT SE T02620210
KSAT Tower San Antonio International Airport (San Antonio, US-TX)
ksatNearest METAR:
KSAT 212251Z 09014KT 10SM FEW065 SCT250 33/21 A2985 RMK AO2 LTG DSNT S SLP089 CB DSNT SE-SW T03330206
KSBP Gnd/Twr San Luis County Regional Airport (San Luis Obispo, US-CA)
ksbpNearest METAR:
KSBP 212256Z 30022G30KT 10SM CLR 19/09 A2988 RMK AO2 PK WND 32030/2254 SLP117 T01940094
KSLN Ground/Tower Salina Regional Airport (Salina, US-KS)
kslnNearest METAR:
KSLN 212253Z 16027G35KT 10SM FEW075 SCT090 37/20 A2971 RMK AO2 PK WND 16035/2252 SLP041 T03670200
KTLH Del/Gnd/Twr/App Tallahassee Regional Airport (Tallahassee, US-FL)
ktlhNearest METAR:
KTLH 212253Z 13009KT 10SM TS FEW011 SCT035CB BKN070 BKN250 23/23 A2998 RMK AO2 LTG DSNT E AND S SLP151 OCNL LTGIC E TSB24 TS E MOV W CB S P0000 T02330228
KTRK CTAF/Unicom Truckee-Tahoe Airport (Truckee, US-CA)
ktrkNearest METAR:
KTRK 212250Z 13004KT 1/2SM -SN OVC007 00/00 A2990
KVGT Tower North Las Vegas Airport (Las Vegas, US-NV)
kvgtNearest METAR:
KVGT 212253Z AUTO 23024G32KT 10SM CLR 26/07 A2961 RMK AO2 PK WND 25034/2217 SLP022 T02560067
KVLD Gnd/Twr/App/Dep Valdosta Regional Airport (Valdosta, US-GA)
kvldNearest METAR:
KVLD 212253Z 00000KT 7SM VCTS FEW075 FEW095 BKN120 22/22 A2998 RMK AO2 LTG DSNT NW RAE22 TSB01E16 SLP160 P0001 T02220222
MHTG Gnd/Twr/App/Ctr/Ops Toncontin International Airport (Tegucigalpa, Honduras)
WX MAP UNAVAILABLENearest METAR:
MHTG 212200Z 02004KT 8000 TSVCSH BKN030CB 23/20 Q1014 A2994 RERA BECMG 6000 -TSRA
MMMX Departure Licenciado Benito Juarez International Airport (Mexico City, Mexico)
WX MAP UNAVAILABLENearest METAR:
MMMX 212252Z 19005KT 7SM BKN025CB BKN200 22/13 A3014 TEMPO 4SM TSRA RMK 8/903 HZY PCPN W AC
USCC Twr/App/Control Chelyabinsk Airport (Chelyabinsk, Russia)
WX MAP UNAVAILABLENearest METAR:
USCC 212230Z 01003MPS 9999 BKN033CB 07/05 Q1026 R27/000060 TEMPO OVC007 SCT020CB RMK QFE749
VHHH Approach 119.1 #2 Hong Kong International - Chek Lap Kok (Hong Kong, Hong Kong)
WX MAP UNAVAILABLENearest METAR:
VHHH 212230Z 07004KT 9999 FEW020 SCT032 29/25 Q1009 TEMPO 12015G25KT 2500 -TSRA SHRA FEW010CB SCT025
YPJT Gnd/Twr/Radar Perth Jandakot Airport (Perth, AU-WA)
WX MAP UNAVAILABLENearest METAR:
YPJT 212300Z AUTO 31020G31KT 9000 -RA SCT024 SCT038 OVC066 16/11 Q1001
YPPH Approach Perth International Airport (Perth, AU-WA)
WX MAP UNAVAILABLENearest METAR:
YPPH 212230Z 01011KT 9999 VCSH SCT030 BKN055 14/11 Q1001 FM2230 30022G32KT 9999 -SHRA SCT015 BKN025 INTER 2230/0130 30025G45KT 3000 SHRA BKN010 FM2230 MOD/SEV TURB BLW 5000FT